sensor_id;sensor_type;location;lat;lon;timestamp;P1;durP1;ratioP1;P2;durP2;ratioP2
20449;SDS011;10384;51.940;8.432;2024-03-08T00:00:34;25.53;;;11.07;;
20449;SDS011;10384;51.940;8.432;2024-03-08T00:03:00;25.13;;;10.77;;
20449;SDS011;10384;51.940;8.432;2024-03-08T00:05:27;25.73;;;10.53;;
20449;SDS011;10384;51.940;8.432;2024-03-08T00:07:53;23.63;;;10.43;;
20449;SDS011;10384;51.940;8.432;2024-03-08T00:10:19;27.60;;;11.87;;
20449;SDS011;10384;51.940;8.432;2024-03-08T00:12:46;26.33;;;11.60;;
20449;SDS011;10384;51.940;8.432;2024-03-08T00:15:12;26.23;;;10.80;;
20449;SDS011;10384;51.940;8.432;2024-03-08T00:17:39;30.00;;;10.80;;
20449;SDS011;10384;51.940;8.432;2024-03-08T00:20:05;30.33;;;11.23;;
20449;SDS011;10384;51.940;8.432;2024-03-08T00:22:34;26.57;;;10.67;;
20449;SDS011;10384;51.940;8.432;2024-03-08T00:25:00;25.50;;;10.40;;
20449;SDS011;10384;51.940;8.432;2024-03-08T00:27:27;28.30;;;11.00;;
20449;SDS011;10384;51.940;8.432;2024-03-08T00:29:57;27.33;;;10.63;;
20449;SDS011;10384;51.940;8.432;2024-03-08T00:32:23;28.10;;;10.67;;
20449;SDS011;10384;51.940;8.432;2024-03-08T00:34:53;28.20;;;11.53;;
20449;SDS011;10384;51.940;8.432;2024-03-08T00:37:22;30.87;;;10.80;;
20449;SDS011;10384;51.940;8.432;2024-03-08T00:39:48;27.77;;;10.97;;
20449;SDS011;10384;51.940;8.432;2024-03-08T00:42:17;27.37;;;10.80;;
20449;SDS011;10384;51.940;8.432;2024-03-08T00:44:43;25.47;;;11.37;;
20449;SDS011;10384;51.940;8.432;2024-03-08T00:47:09;29.43;;;11.37;;
20449;SDS011;10384;51.940;8.432;2024-03-08T00:49:35;26.40;;;12.50;;
20449;SDS011;10384;51.940;8.432;2024-03-08T00:52:03;31.07;;;12.17;;
20449;SDS011;10384;51.940;8.432;2024-03-08T00:54:30;31.33;;;12.13;;
20449;SDS011;10384;51.940;8.432;2024-03-08T00:56:56;31.97;;;11.87;;
20449;SDS011;10384;51.940;8.432;2024-03-08T00:59:22;33.13;;;12.07;;
20449;SDS011;10384;51.940;8.432;2024-03-08T01:01:48;30.10;;;11.90;;
20449;SDS011;10384;51.940;8.432;2024-03-08T01:04:14;29.47;;;11.43;;
20449;SDS011;10384;51.940;8.432;2024-03-08T01:06:40;31.93;;;12.37;;
20449;SDS011;10384;51.940;8.432;2024-03-08T01:09:10;32.20;;;11.83;;
20449;SDS011;10384;51.940;8.432;2024-03-08T01:11:36;28.90;;;12.50;;
20449;SDS011;10384;51.940;8.432;2024-03-08T01:14:03;29.87;;;12.37;;
20449;SDS011;10384;51.940;8.432;2024-03-08T01:16:29;32.43;;;12.67;;
20449;SDS011;10384;51.940;8.432;2024-03-08T01:18:55;30.43;;;12.20;;
20449;SDS011;10384;51.940;8.432;2024-03-08T01:21:21;29.57;;;11.37;;
20449;SDS011;10384;51.940;8.432;2024-03-08T01:23:47;28.00;;;10.83;;
20449;SDS011;10384;51.940;8.432;2024-03-08T01:26:13;27.60;;;11.93;;
20449;SDS011;10384;51.940;8.432;2024-03-08T01:28:40;27.47;;;11.93;;
20449;SDS011;10384;51.940;8.432;2024-03-08T01:31:06;29.67;;;12.43;;
20449;SDS011;10384;51.940;8.432;2024-03-08T01:33:32;33.63;;;12.97;;
20449;SDS011;10384;51.940;8.432;2024-03-08T01:35:58;32.33;;;12.67;;
20449;SDS011;10384;51.940;8.432;2024-03-08T01:38:24;33.60;;;13.13;;
20449;SDS011;10384;51.940;8.432;2024-03-08T01:40:50;29.33;;;11.83;;
20449;SDS011;10384;51.940;8.432;2024-03-08T01:43:20;34.37;;;13.17;;
20449;SDS011;10384;51.940;8.432;2024-03-08T01:45:47;33.00;;;13.43;;
20449;SDS011;10384;51.940;8.432;2024-03-08T01:48:13;30.00;;;11.67;;
20449;SDS011;10384;51.940;8.432;2024-03-08T01:50:40;33.77;;;12.93;;
20449;SDS011;10384;51.940;8.432;2024-03-08T01:53:07;33.63;;;12.90;;
20449;SDS011;10384;51.940;8.432;2024-03-08T01:55:35;30.00;;;12.50;;
20449;SDS011;10384;51.940;8.432;2024-03-08T01:58:02;31.03;;;12.87;;
20449;SDS011;10384;51.940;8.432;2024-03-08T02:00:29;28.47;;;11.70;;
20449;SDS011;10384;51.940;8.432;2024-03-08T02:02:58;33.70;;;12.70;;
20449;SDS011;10384;51.940;8.432;2024-03-08T02:05:24;28.07;;;11.97;;
20449;SDS011;10384;51.940;8.432;2024-03-08T02:07:50;32.77;;;12.93;;
20449;SDS011;10384;51.940;8.432;2024-03-08T02:10:16;27.77;;;11.70;;
20449;SDS011;10384;51.940;8.432;2024-03-08T02:12:43;30.43;;;12.43;;
20449;SDS011;10384;51.940;8.432;2024-03-08T02:15:09;29.43;;;12.40;;
20449;SDS011;10384;51.940;8.432;2024-03-08T02:17:35;29.23;;;12.57;;
20449;SDS011;10384;51.940;8.432;2024-03-08T02:20:02;32.27;;;12.63;;
20449;SDS011;10384;51.940;8.432;2024-03-08T02:22:29;31.77;;;13.23;;
20449;SDS011;10384;51.940;8.432;2024-03-08T02:24:56;31.00;;;12.50;;
20449;SDS011;10384;51.940;8.432;2024-03-08T02:27:26;30.73;;;12.13;;
20449;SDS011;10384;51.940;8.432;2024-03-08T02:29:55;32.00;;;12.70;;
20449;SDS011;10384;51.940;8.432;2024-03-08T02:32:22;30.47;;;12.67;;
20449;SDS011;10384;51.940;8.432;2024-03-08T02:34:48;31.33;;;13.10;;
20449;SDS011;10384;51.940;8.432;2024-03-08T02:37:14;33.70;;;12.97;;
20449;SDS011;10384;51.940;8.432;2024-03-08T02:39:40;32.43;;;13.80;;
20449;SDS011;10384;51.940;8.432;2024-03-08T02:42:07;36.73;;;14.43;;
20449;SDS011;10384;51.940;8.432;2024-03-08T02:44:33;36.60;;;13.40;;
20449;SDS011;10384;51.940;8.432;2024-03-08T02:46:59;31.00;;;13.30;;
20449;SDS011;10384;51.940;8.432;2024-03-08T02:49:25;29.80;;;13.33;;
20449;SDS011;10384;51.940;8.432;2024-03-08T02:51:52;31.13;;;12.60;;
20449;SDS011;10384;51.940;8.432;2024-03-08T02:54:18;31.17;;;12.43;;
20449;SDS011;10384;51.940;8.432;2024-03-08T02:56:44;35.07;;;13.07;;
20449;SDS011;10384;51.940;8.432;2024-03-08T02:59:15;31.17;;;12.70;;
20449;SDS011;10384;51.940;8.432;2024-03-08T03:01:42;31.80;;;12.73;;
20449;SDS011;10384;51.940;8.432;2024-03-08T03:04:08;34.70;;;12.87;;
20449;SDS011;10384;51.940;8.432;2024-03-08T03:06:34;31.17;;;11.97;;
20449;SDS011;10384;51.940;8.432;2024-03-08T03:09:00;34.27;;;13.90;;
20449;SDS011;10384;51.940;8.432;2024-03-08T03:11:27;34.20;;;12.93;;
20449;SDS011;10384;51.940;8.432;2024-03-08T03:13:53;32.73;;;12.40;;
20449;SDS011;10384;51.940;8.432;2024-03-08T03:16:19;38.97;;;13.00;;
20449;SDS011;10384;51.940;8.432;2024-03-08T03:18:45;32.43;;;12.63;;
20449;SDS011;10384;51.940;8.432;2024-03-08T03:21:11;31.63;;;12.47;;
20449;SDS011;10384;51.940;8.432;2024-03-08T03:23:38;36.80;;;13.67;;
20449;SDS011;10384;51.940;8.432;2024-03-08T03:26:10;33.50;;;13.07;;
20449;SDS011;10384;51.940;8.432;2024-03-08T03:28:37;29.83;;;13.00;;
20449;SDS011;10384;51.940;8.432;2024-03-08T03:31:06;36.17;;;14.70;;
20449;SDS011;10384;51.940;8.432;2024-03-08T03:33:33;27.83;;;12.13;;
20449;SDS011;10384;51.940;8.432;2024-03-08T03:35:59;38.27;;;13.73;;
20449;SDS011;10384;51.940;8.432;2024-03-08T03:38:26;34.57;;;14.00;;
20449;SDS011;10384;51.940;8.432;2024-03-08T03:40:53;33.47;;;12.83;;
20449;SDS011;10384;51.940;8.432;2024-03-08T03:43:22;40.20;;;14.03;;
20449;SDS011;10384;51.940;8.432;2024-03-08T03:45:48;35.87;;;14.27;;
20449;SDS011;10384;51.940;8.432;2024-03-08T03:48:14;31.23;;;12.40;;
20449;SDS011;10384;51.940;8.432;2024-03-08T03:50:40;32.27;;;13.07;;
20449;SDS011;10384;51.940;8.432;2024-03-08T03:53:06;32.67;;;13.13;;
20449;SDS011;10384;51.940;8.432;2024-03-08T03:55:32;36.07;;;13.00;;
20449;SDS011;10384;51.940;8.432;2024-03-08T03:57:58;31.03;;;12.97;;
20449;SDS011;10384;51.940;8.432;2024-03-08T04:00:26;30.97;;;12.40;;
20449;SDS011;10384;51.940;8.432;2024-03-08T04:02:52;29.67;;;12.20;;
20449;SDS011;10384;51.940;8.432;2024-03-08T04:05:18;33.20;;;12.90;;
20449;SDS011;10384;51.940;8.432;2024-03-08T04:07:44;36.70;;;13.87;;
20449;SDS011;10384;51.940;8.432;2024-03-08T04:10:11;37.70;;;14.40;;
20449;SDS011;10384;51.940;8.432;2024-03-08T04:12:37;29.70;;;12.70;;
20449;SDS011;10384;51.940;8.432;2024-03-08T04:15:04;31.17;;;12.77;;
20449;SDS011;10384;51.940;8.432;2024-03-08T04:17:32;33.87;;;13.10;;
20449;SDS011;10384;51.940;8.432;2024-03-08T04:20:00;35.17;;;13.77;;
20449;SDS011;10384;51.940;8.432;2024-03-08T04:22:29;35.77;;;13.13;;
20449;SDS011;10384;51.940;8.432;2024-03-08T04:24:55;38.93;;;14.03;;
20449;SDS011;10384;51.940;8.432;2024-03-08T04:27:21;35.10;;;13.20;;
20449;SDS011;10384;51.940;8.432;2024-03-08T04:29:47;36.27;;;13.47;;
20449;SDS011;10384;51.940;8.432;2024-03-08T04:32:13;40.53;;;13.80;;
20449;SDS011;10384;51.940;8.432;2024-03-08T04:34:39;41.23;;;13.27;;
20449;SDS011;10384;51.940;8.432;2024-03-08T04:37:05;33.10;;;13.50;;
20449;SDS011;10384;51.940;8.432;2024-03-08T04:39:31;35.83;;;13.97;;
20449;SDS011;10384;51.940;8.432;2024-03-08T04:41:59;33.77;;;12.83;;
20449;SDS011;10384;51.940;8.432;2024-03-08T04:44:34;30.57;;;12.67;;
20449;SDS011;10384;51.940;8.432;2024-03-08T04:47:00;35.87;;;13.23;;
20449;SDS011;10384;51.940;8.432;2024-03-08T04:49:26;35.07;;;12.73;;
20449;SDS011;10384;51.940;8.432;2024-03-08T04:51:53;37.23;;;13.40;;
20449;SDS011;10384;51.940;8.432;2024-03-08T04:54:19;35.70;;;14.33;;
20449;SDS011;10384;51.940;8.432;2024-03-08T04:56:45;38.53;;;13.33;;
20449;SDS011;10384;51.940;8.432;2024-03-08T04:59:11;35.70;;;13.87;;
20449;SDS011;10384;51.940;8.432;2024-03-08T05:01:37;34.10;;;12.93;;
20449;SDS011;10384;51.940;8.432;2024-03-08T05:04:03;33.87;;;13.03;;
20449;SDS011;10384;51.940;8.432;2024-03-08T05:06:30;34.87;;;13.20;;
20449;SDS011;10384;51.940;8.432;2024-03-08T05:08:56;36.37;;;13.07;;
20449;SDS011;10384;51.940;8.432;2024-03-08T05:11:22;38.07;;;14.33;;
20449;SDS011;10384;51.940;8.432;2024-03-08T05:13:48;34.83;;;13.33;;
20449;SDS011;10384;51.940;8.432;2024-03-08T05:16:14;36.30;;;13.33;;
20449;SDS011;10384;51.940;8.432;2024-03-08T05:18:40;36.03;;;14.73;;
20449;SDS011;10384;51.940;8.432;2024-03-08T05:21:07;34.90;;;13.60;;
20449;SDS011;10384;51.940;8.432;2024-03-08T05:23:34;36.70;;;13.87;;
20449;SDS011;10384;51.940;8.432;2024-03-08T05:26:00;34.53;;;13.17;;
20449;SDS011;10384;51.940;8.432;2024-03-08T05:28:26;44.47;;;13.93;;
20449;SDS011;10384;51.940;8.432;2024-03-08T05:30:52;38.83;;;13.80;;
20449;SDS011;10384;51.940;8.432;2024-03-08T05:33:21;35.67;;;13.47;;
20449;SDS011;10384;51.940;8.432;2024-03-08T05:35:48;33.90;;;13.17;;
20449;SDS011;10384;51.940;8.432;2024-03-08T05:38:14;37.30;;;12.70;;
20449;SDS011;10384;51.940;8.432;2024-03-08T05:40:40;31.13;;;13.00;;
20449;SDS011;10384;51.940;8.432;2024-03-08T05:43:08;37.33;;;13.00;;
20449;SDS011;10384;51.940;8.432;2024-03-08T05:45:34;32.70;;;13.37;;
20449;SDS011;10384;51.940;8.432;2024-03-08T05:48:00;36.30;;;13.17;;
20449;SDS011;10384;51.940;8.432;2024-03-08T05:50:26;37.60;;;13.93;;
20449;SDS011;10384;51.940;8.432;2024-03-08T05:52:52;39.40;;;14.43;;
20449;SDS011;10384;51.940;8.432;2024-03-08T05:55:18;37.07;;;14.57;;
20449;SDS011;10384;51.940;8.432;2024-03-08T05:57:44;35.30;;;13.23;;
20449;SDS011;10384;51.940;8.432;2024-03-08T06:00:10;32.77;;;13.03;;
20449;SDS011;10384;51.940;8.432;2024-03-08T06:02:37;37.17;;;14.37;;
20449;SDS011;10384;51.940;8.432;2024-03-08T06:05:06;33.10;;;13.60;;
20449;SDS011;10384;51.940;8.432;2024-03-08T06:07:32;37.17;;;13.97;;
20449;SDS011;10384;51.940;8.432;2024-03-08T06:09:58;34.83;;;13.57;;
20449;SDS011;10384;51.940;8.432;2024-03-08T06:12:25;36.50;;;13.60;;
20449;SDS011;10384;51.940;8.432;2024-03-08T06:14:54;35.23;;;12.90;;
20449;SDS011;10384;51.940;8.432;2024-03-08T06:17:20;37.87;;;13.77;;
20449;SDS011;10384;51.940;8.432;2024-03-08T06:19:50;42.50;;;14.90;;
20449;SDS011;10384;51.940;8.432;2024-03-08T06:22:17;37.17;;;13.97;;
20449;SDS011;10384;51.940;8.432;2024-03-08T06:24:44;34.70;;;14.37;;
20449;SDS011;10384;51.940;8.432;2024-03-08T06:27:10;38.63;;;13.63;;
20449;SDS011;10384;51.940;8.432;2024-03-08T06:29:36;36.13;;;14.40;;
20449;SDS011;10384;51.940;8.432;2024-03-08T06:32:02;37.50;;;13.67;;
20449;SDS011;10384;51.940;8.432;2024-03-08T06:34:28;38.07;;;13.77;;
20449;SDS011;10384;51.940;8.432;2024-03-08T06:36:54;37.77;;;14.00;;
20449;SDS011;10384;51.940;8.432;2024-03-08T06:39:25;36.63;;;13.67;;
20449;SDS011;10384;51.940;8.432;2024-03-08T06:41:51;42.87;;;14.90;;
20449;SDS011;10384;51.940;8.432;2024-03-08T06:44:17;42.60;;;14.07;;
20449;SDS011;10384;51.940;8.432;2024-03-08T06:46:46;37.03;;;13.97;;
20449;SDS011;10384;51.940;8.432;2024-03-08T06:49:13;43.33;;;14.57;;
20449;SDS011;10384;51.940;8.432;2024-03-08T06:51:40;42.90;;;15.70;;
20449;SDS011;10384;51.940;8.432;2024-03-08T06:54:06;39.57;;;14.93;;
20449;SDS011;10384;51.940;8.432;2024-03-08T06:56:36;37.27;;;13.17;;
20449;SDS011;10384;51.940;8.432;2024-03-08T06:59:03;39.50;;;13.87;;
20449;SDS011;10384;51.940;8.432;2024-03-08T07:01:29;40.67;;;14.90;;
20449;SDS011;10384;51.940;8.432;2024-03-08T07:03:57;39.40;;;14.53;;
20449;SDS011;10384;51.940;8.432;2024-03-08T07:06:23;41.93;;;14.27;;
20449;SDS011;10384;51.940;8.432;2024-03-08T07:08:50;40.47;;;13.53;;
20449;SDS011;10384;51.940;8.432;2024-03-08T07:11:16;35.67;;;13.77;;
20449;SDS011;10384;51.940;8.432;2024-03-08T07:13:44;38.27;;;13.73;;
20449;SDS011;10384;51.940;8.432;2024-03-08T07:16:10;35.23;;;13.27;;
20449;SDS011;10384;51.940;8.432;2024-03-08T07:18:37;38.23;;;14.13;;
20449;SDS011;10384;51.940;8.432;2024-03-08T07:21:08;39.13;;;14.20;;
20449;SDS011;10384;51.940;8.432;2024-03-08T07:23:34;38.57;;;14.30;;
20449;SDS011;10384;51.940;8.432;2024-03-08T07:26:19;44.50;;;15.13;;
20449;SDS011;10384;51.940;8.432;2024-03-08T07:28:45;39.73;;;14.23;;
20449;SDS011;10384;51.940;8.432;2024-03-08T07:31:11;36.37;;;15.00;;
20449;SDS011;10384;51.940;8.432;2024-03-08T07:33:59;38.60;;;14.73;;
20449;SDS011;10384;51.940;8.432;2024-03-08T07:36:25;43.97;;;15.80;;
20449;SDS011;10384;51.940;8.432;2024-03-08T07:38:51;43.17;;;15.60;;
20449;SDS011;10384;51.940;8.432;2024-03-08T07:41:17;40.00;;;14.17;;
20449;SDS011;10384;51.940;8.432;2024-03-08T07:43:43;40.13;;;15.33;;
20449;SDS011;10384;51.940;8.432;2024-03-08T07:46:10;36.97;;;14.63;;
20449;SDS011;10384;51.940;8.432;2024-03-08T07:48:36;39.97;;;14.57;;
20449;SDS011;10384;51.940;8.432;2024-03-08T07:51:02;45.37;;;15.67;;
20449;SDS011;10384;51.940;8.432;2024-03-08T07:53:28;43.40;;;15.03;;
20449;SDS011;10384;51.940;8.432;2024-03-08T07:55:54;39.20;;;14.20;;
20449;SDS011;10384;51.940;8.432;2024-03-08T07:58:20;39.37;;;14.83;;
20449;SDS011;10384;51.940;8.432;2024-03-08T08:00:47;44.23;;;15.30;;
20449;SDS011;10384;51.940;8.432;2024-03-08T08:03:13;39.93;;;13.93;;
20449;SDS011;10384;51.940;8.432;2024-03-08T08:05:40;36.83;;;14.87;;
20449;SDS011;10384;51.940;8.432;2024-03-08T08:08:09;33.50;;;13.53;;
20449;SDS011;10384;51.940;8.432;2024-03-08T08:10:36;38.73;;;14.63;;
20449;SDS011;10384;51.940;8.432;2024-03-08T08:13:02;41.33;;;16.83;;
20449;SDS011;10384;51.940;8.432;2024-03-08T08:15:29;39.27;;;13.87;;
20449;SDS011;10384;51.940;8.432;2024-03-08T08:17:55;38.10;;;14.43;;
20449;SDS011;10384;51.940;8.432;2024-03-08T08:20:21;37.43;;;14.67;;
20449;SDS011;10384;51.940;8.432;2024-03-08T08:22:48;35.60;;;14.07;;
20449;SDS011;10384;51.940;8.432;2024-03-08T08:25:14;36.07;;;13.87;;
20449;SDS011;10384;51.940;8.432;2024-03-08T08:27:40;35.93;;;13.83;;
20449;SDS011;10384;51.940;8.432;2024-03-08T08:30:07;39.57;;;14.70;;
20449;SDS011;10384;51.940;8.432;2024-03-08T08:32:34;37.67;;;15.17;;
20449;SDS011;10384;51.940;8.432;2024-03-08T08:35:09;43.70;;;15.37;;
20449;SDS011;10384;51.940;8.432;2024-03-08T08:37:40;35.23;;;13.40;;
20449;SDS011;10384;51.940;8.432;2024-03-08T08:40:06;41.07;;;12.57;;
20449;SDS011;10384;51.940;8.432;2024-03-08T08:42:39;36.93;;;13.97;;
20449;SDS011;10384;51.940;8.432;2024-03-08T08:45:05;35.00;;;13.60;;
20449;SDS011;10384;51.940;8.432;2024-03-08T08:47:35;36.47;;;14.57;;
20449;SDS011;10384;51.940;8.432;2024-03-08T08:50:02;37.07;;;14.03;;
20449;SDS011;10384;51.940;8.432;2024-03-08T08:52:29;38.80;;;14.70;;
20449;SDS011;10384;51.940;8.432;2024-03-08T08:54:55;41.90;;;14.23;;
20449;SDS011;10384;51.940;8.432;2024-03-08T08:57:21;32.53;;;12.77;;
20449;SDS011;10384;51.940;8.432;2024-03-08T08:59:47;36.53;;;13.63;;
20449;SDS011;10384;51.940;8.432;2024-03-08T09:02:13;31.10;;;12.90;;
20449;SDS011;10384;51.940;8.432;2024-03-08T09:04:41;36.47;;;13.50;;
20449;SDS011;10384;51.940;8.432;2024-03-08T09:07:07;31.13;;;13.17;;
20449;SDS011;10384;51.940;8.432;2024-03-08T09:09:34;32.53;;;12.50;;
20449;SDS011;10384;51.940;8.432;2024-03-08T09:12:01;33.27;;;13.13;;
20449;SDS011;10384;51.940;8.432;2024-03-08T09:14:27;31.43;;;12.00;;
20449;SDS011;10384;51.940;8.432;2024-03-08T09:16:53;34.23;;;13.43;;
20449;SDS011;10384;51.940;8.432;2024-03-08T09:19:19;34.27;;;13.53;;
20449;SDS011;10384;51.940;8.432;2024-03-08T09:21:45;32.13;;;12.97;;
20449;SDS011;10384;51.940;8.432;2024-03-08T09:24:11;31.67;;;13.63;;
20449;SDS011;10384;51.940;8.432;2024-03-08T09:26:37;29.47;;;12.30;;
20449;SDS011;10384;51.940;8.432;2024-03-08T09:29:07;31.53;;;12.90;;
20449;SDS011;10384;51.940;8.432;2024-03-08T09:31:33;31.87;;;12.70;;
20449;SDS011;10384;51.940;8.432;2024-03-08T09:33:59;31.30;;;12.53;;
20449;SDS011;10384;51.940;8.432;2024-03-08T09:36:25;29.77;;;12.83;;
20449;SDS011;10384;51.940;8.432;2024-03-08T09:38:52;35.17;;;13.20;;
20449;SDS011;10384;51.940;8.432;2024-03-08T09:41:18;35.57;;;13.73;;
20449;SDS011;10384;51.940;8.432;2024-03-08T09:43:44;32.37;;;12.60;;
20449;SDS011;10384;51.940;8.432;2024-03-08T09:46:11;31.63;;;12.63;;
20449;SDS011;10384;51.940;8.432;2024-03-08T09:48:39;33.43;;;11.90;;
20449;SDS011;10384;51.940;8.432;2024-03-08T09:51:06;32.47;;;13.10;;
20449;SDS011;10384;51.940;8.432;2024-03-08T09:53:33;34.00;;;14.03;;
20449;SDS011;10384;51.940;8.432;2024-03-08T09:55:59;31.03;;;13.90;;
20449;SDS011;10384;51.940;8.432;2024-03-08T09:58:25;33.80;;;13.27;;
20449;SDS011;10384;51.940;8.432;2024-03-08T10:01:00;31.77;;;12.03;;
20449;SDS011;10384;51.940;8.432;2024-03-08T10:03:32;32.27;;;13.43;;
20449;SDS011;10384;51.940;8.432;2024-03-08T10:05:58;25.83;;;11.50;;
20449;SDS011;10384;51.940;8.432;2024-03-08T10:08:27;26.87;;;12.17;;
20449;SDS011;10384;51.940;8.432;2024-03-08T10:10:56;26.47;;;11.57;;
20449;SDS011;10384;51.940;8.432;2024-03-08T10:13:26;31.77;;;11.73;;
20449;SDS011;10384;51.940;8.432;2024-03-08T10:15:53;28.47;;;10.77;;
20449;SDS011;10384;51.940;8.432;2024-03-08T10:18:19;29.83;;;11.53;;
20449;SDS011;10384;51.940;8.432;2024-03-08T10:20:45;24.93;;;10.87;;
20449;SDS011;10384;51.940;8.432;2024-03-08T10:23:11;23.97;;;11.07;;
20449;SDS011;10384;51.940;8.432;2024-03-08T10:25:37;34.07;;;12.27;;
20449;SDS011;10384;51.940;8.432;2024-03-08T10:28:04;27.03;;;11.93;;
20449;SDS011;10384;51.940;8.432;2024-03-08T10:30:30;29.70;;;11.70;;
20449;SDS011;10384;51.940;8.432;2024-03-08T10:32:56;28.07;;;10.97;;
20449;SDS011;10384;51.940;8.432;2024-03-08T10:35:23;25.40;;;10.37;;
20449;SDS011;10384;51.940;8.432;2024-03-08T10:37:51;25.73;;;10.73;;
20449;SDS011;10384;51.940;8.432;2024-03-08T10:40:28;24.23;;;10.77;;
20449;SDS011;10384;51.940;8.432;2024-03-08T10:42:56;23.60;;;10.43;;
20449;SDS011;10384;51.940;8.432;2024-03-08T10:47:53;24.37;;;9.97;;
20449;SDS011;10384;51.940;8.432;2024-03-08T10:50:24;22.43;;;8.80;;
20449;SDS011;10384;51.940;8.432;2024-03-08T10:52:50;22.13;;;9.80;;
20449;SDS011;10384;51.940;8.432;2024-03-08T10:55:20;23.47;;;9.53;;
20449;SDS011;10384;51.940;8.432;2024-03-08T10:57:46;20.50;;;9.43;;
20449;SDS011;10384;51.940;8.432;2024-03-08T11:00:13;24.33;;;10.67;;
20449;SDS011;10384;51.940;8.432;2024-03-08T11:02:43;24.63;;;10.23;;
20449;SDS011;10384;51.940;8.432;2024-03-08T11:08:20;19.63;;;8.37;;
20449;SDS011;10384;51.940;8.432;2024-03-08T11:16:02;23.27;;;8.50;;
20449;SDS011;10384;51.940;8.432;2024-03-08T11:18:34;20.60;;;8.90;;
20449;SDS011;10384;51.940;8.432;2024-03-08T11:21:04;21.07;;;8.13;;
20449;SDS011;10384;51.940;8.432;2024-03-08T11:23:31;19.43;;;8.63;;
20449;SDS011;10384;51.940;8.432;2024-03-08T11:25:58;19.27;;;8.67;;
20449;SDS011;10384;51.940;8.432;2024-03-08T11:28:24;19.23;;;8.83;;
20449;SDS011;10384;51.940;8.432;2024-03-08T11:33:24;19.00;;;8.50;;
20449;SDS011;10384;51.940;8.432;2024-03-08T11:35:50;19.23;;;8.77;;
20449;SDS011;10384;51.940;8.432;2024-03-08T11:38:16;20.33;;;9.33;;
20449;SDS011;10384;51.940;8.432;2024-03-08T11:40:44;22.90;;;10.00;;
20449;SDS011;10384;51.940;8.432;2024-03-08T11:43:11;20.27;;;9.27;;
20449;SDS011;10384;51.940;8.432;2024-03-08T11:45:39;21.57;;;9.73;;
20449;SDS011;10384;51.940;8.432;2024-03-08T11:48:06;22.43;;;8.83;;
20449;SDS011;10384;51.940;8.432;2024-03-08T11:50:32;20.97;;;9.47;;
20449;SDS011;10384;51.940;8.432;2024-03-08T11:53:01;21.67;;;9.27;;
20449;SDS011;10384;51.940;8.432;2024-03-08T11:55:29;19.80;;;9.20;;
20449;SDS011;10384;51.940;8.432;2024-03-08T11:58:05;20.63;;;9.40;;
20449;SDS011;10384;51.940;8.432;2024-03-08T12:00:33;19.80;;;9.17;;
20449;SDS011;10384;51.940;8.432;2024-03-08T12:03:07;21.37;;;9.87;;
20449;SDS011;10384;51.940;8.432;2024-03-08T12:05:34;17.83;;;8.37;;
20449;SDS011;10384;51.940;8.432;2024-03-08T12:08:03;26.40;;;9.23;;
20449;SDS011;10384;51.940;8.432;2024-03-08T12:10:37;18.03;;;8.13;;
20449;SDS011;10384;51.940;8.432;2024-03-08T12:13:03;36.43;;;9.50;;
20449;SDS011;10384;51.940;8.432;2024-03-08T12:15:36;19.60;;;8.43;;
20449;SDS011;10384;51.940;8.432;2024-03-08T12:18:02;22.23;;;9.90;;
20449;SDS011;10384;51.940;8.432;2024-03-08T12:20:29;23.73;;;10.10;;
20449;SDS011;10384;51.940;8.432;2024-03-08T12:22:56;22.53;;;10.30;;
20449;SDS011;10384;51.940;8.432;2024-03-08T12:25:23;23.17;;;9.70;;
20449;SDS011;10384;51.940;8.432;2024-03-08T12:27:51;23.33;;;10.30;;
20449;SDS011;10384;51.940;8.432;2024-03-08T12:30:18;21.13;;;8.83;;
20449;SDS011;10384;51.940;8.432;2024-03-08T12:32:53;21.60;;;10.03;;
20449;SDS011;10384;51.940;8.432;2024-03-08T12:35:21;21.57;;;10.13;;
20449;SDS011;10384;51.940;8.432;2024-03-08T12:37:52;23.10;;;10.13;;
20449;SDS011;10384;51.940;8.432;2024-03-08T12:40:18;21.00;;;9.27;;
20449;SDS011;10384;51.940;8.432;2024-03-08T12:42:46;19.23;;;9.03;;
20449;SDS011;10384;51.940;8.432;2024-03-08T12:45:13;20.60;;;9.63;;
20449;SDS011;10384;51.940;8.432;2024-03-08T12:47:39;20.43;;;9.20;;
20449;SDS011;10384;51.940;8.432;2024-03-08T12:50:07;20.83;;;8.73;;
20449;SDS011;10384;51.940;8.432;2024-03-08T12:52:33;21.97;;;9.87;;
20449;SDS011;10384;51.940;8.432;2024-03-08T12:54:59;21.77;;;10.33;;
20449;SDS011;10384;51.940;8.432;2024-03-08T12:57:29;22.43;;;9.10;;
20449;SDS011;10384;51.940;8.432;2024-03-08T12:59:55;23.00;;;8.73;;
20449;SDS011;10384;51.940;8.432;2024-03-08T13:02:21;22.17;;;8.90;;
20449;SDS011;10384;51.940;8.432;2024-03-08T13:04:49;18.43;;;9.00;;
20449;SDS011;10384;51.940;8.432;2024-03-08T13:07:22;19.83;;;8.60;;
20449;SDS011;10384;51.940;8.432;2024-03-08T13:09:50;19.00;;;8.37;;
20449;SDS011;10384;51.940;8.432;2024-03-08T13:12:17;17.90;;;8.40;;
20449;SDS011;10384;51.940;8.432;2024-03-08T13:14:45;18.90;;;8.27;;
20449;SDS011;10384;51.940;8.432;2024-03-08T13:17:11;16.90;;;8.10;;
20449;SDS011;10384;51.940;8.432;2024-03-08T13:19:37;17.50;;;7.77;;
20449;SDS011;10384;51.940;8.432;2024-03-08T13:22:04;18.80;;;7.93;;
20449;SDS011;10384;51.940;8.432;2024-03-08T13:24:30;16.60;;;7.07;;
20449;SDS011;10384;51.940;8.432;2024-03-08T13:26:56;18.53;;;7.67;;
20449;SDS011;10384;51.940;8.432;2024-03-08T13:29:23;17.23;;;7.13;;
20449;SDS011;10384;51.940;8.432;2024-03-08T13:31:49;16.40;;;7.37;;
20449;SDS011;10384;51.940;8.432;2024-03-08T13:34:19;17.97;;;7.27;;
20449;SDS011;10384;51.940;8.432;2024-03-08T13:36:54;18.10;;;9.27;;
20449;SDS011;10384;51.940;8.432;2024-03-08T13:39:24;15.67;;;7.23;;
20449;SDS011;10384;51.940;8.432;2024-03-08T13:41:51;19.53;;;8.50;;
20449;SDS011;10384;51.940;8.432;2024-03-08T13:44:17;17.50;;;8.57;;
20449;SDS011;10384;51.940;8.432;2024-03-08T13:46:43;18.27;;;8.73;;
20449;SDS011;10384;51.940;8.432;2024-03-08T13:49:09;16.97;;;8.63;;
20449;SDS011;10384;51.940;8.432;2024-03-08T13:51:35;18.67;;;8.27;;
20449;SDS011;10384;51.940;8.432;2024-03-08T13:54:02;20.23;;;8.90;;
20449;SDS011;10384;51.940;8.432;2024-03-08T13:56:31;26.13;;;9.27;;
20449;SDS011;10384;51.940;8.432;2024-03-08T13:58:57;23.17;;;9.20;;
20449;SDS011;10384;51.940;8.432;2024-03-08T14:01:23;24.03;;;9.20;;
20449;SDS011;10384;51.940;8.432;2024-03-08T14:03:50;20.77;;;8.97;;
20449;SDS011;10384;51.940;8.432;2024-03-08T14:06:16;20.77;;;9.83;;
20449;SDS011;10384;51.940;8.432;2024-03-08T14:08:42;22.20;;;9.37;;
20449;SDS011;10384;51.940;8.432;2024-03-08T14:11:08;20.87;;;9.43;;
20449;SDS011;10384;51.940;8.432;2024-03-08T14:13:41;18.57;;;7.60;;
20449;SDS011;10384;51.940;8.432;2024-03-08T14:16:10;24.43;;;8.83;;
20449;SDS011;10384;51.940;8.432;2024-03-08T14:18:36;25.17;;;8.87;;
20449;SDS011;10384;51.940;8.432;2024-03-08T14:21:02;17.73;;;8.07;;
20449;SDS011;10384;51.940;8.432;2024-03-08T14:23:29;21.13;;;8.80;;
20449;SDS011;10384;51.940;8.432;2024-03-08T14:25:55;19.77;;;8.20;;
20449;SDS011;10384;51.940;8.432;2024-03-08T14:28:21;18.23;;;8.90;;
20449;SDS011;10384;51.940;8.432;2024-03-08T14:30:48;19.43;;;8.70;;
20449;SDS011;10384;51.940;8.432;2024-03-08T14:33:14;19.17;;;9.00;;
20449;SDS011;10384;51.940;8.432;2024-03-08T14:35:41;18.87;;;8.60;;